createdAt,value
2018-07-24T00:02:19.913Z,3.70
2018-07-24T00:04:48.182Z,5.10
2018-07-24T00:07:16.428Z,4.55
2018-07-24T00:09:44.685Z,4.50
2018-07-24T00:12:13.042Z,5.47
2018-07-24T00:14:41.263Z,4.95
2018-07-24T00:17:09.528Z,5.55
2018-07-24T00:19:37.761Z,4.28
2018-07-24T00:22:06.387Z,4.50
2018-07-24T00:24:34.700Z,4.37
2018-07-24T00:27:03.492Z,4.95
2018-07-24T00:29:31.726Z,5.58
2018-07-24T00:31:59.958Z,5.22
2018-07-24T00:34:28.218Z,4.80
2018-07-24T00:36:56.439Z,4.65
2018-07-24T00:39:24.708Z,4.65
2018-07-24T00:41:52.958Z,5.17
2018-07-24T00:44:21.242Z,4.15
2018-07-24T00:46:49.446Z,4.85
2018-07-24T00:49:17.767Z,4.30
2018-07-24T00:51:46.270Z,4.15
2018-07-24T00:54:14.577Z,4.45
2018-07-24T00:56:42.816Z,4.83
2018-07-24T00:59:11.984Z,4.97
2018-07-24T01:01:40.481Z,5.50
2018-07-24T01:04:08.710Z,5.83
2018-07-24T01:06:36.964Z,5.67
2018-07-24T01:09:07.589Z,8.05
2018-07-24T01:11:35.901Z,5.58
2018-07-24T01:14:04.188Z,6.25
2018-07-24T01:16:32.516Z,5.97
2018-07-24T01:19:00.737Z,5.25
2018-07-24T01:21:29.072Z,6.20
2018-07-24T01:23:57.304Z,6.20
2018-07-24T01:26:25.560Z,6.20
2018-07-24T01:28:53.793Z,7.08
2018-07-24T01:31:22.069Z,6.33
2018-07-24T01:33:50.398Z,7.03
2018-07-24T01:36:18.671Z,6.58
2018-07-24T01:38:46.928Z,6.78
2018-07-24T01:41:15.215Z,7.70
2018-07-24T01:43:43.456Z,7.42
2018-07-24T01:46:11.875Z,7.12
2018-07-24T01:48:40.104Z,8.40
2018-07-24T01:51:08.560Z,7.42
2018-07-24T01:53:36.829Z,8.18
2018-07-24T01:56:05.099Z,8.38
2018-07-24T01:58:33.372Z,8.20
2018-07-24T02:01:03.016Z,7.72
2018-07-24T02:03:32.210Z,7.83
2018-07-24T02:06:00.896Z,8.08
2018-07-24T02:08:29.182Z,8.63
2018-07-24T02:10:57.462Z,7.78
2018-07-24T02:13:25.717Z,8.43
2018-07-24T02:15:53.979Z,8.58
2018-07-24T02:18:22.413Z,7.72
2018-07-24T02:20:50.664Z,6.92
2018-07-24T02:23:19.136Z,7.60
2018-07-24T02:25:47.484Z,7.00
2018-07-24T02:28:15.943Z,6.87
2018-07-24T02:30:44.207Z,8.05
2018-07-24T02:33:13.300Z,8.58
2018-07-24T02:35:41.780Z,7.28
2018-07-24T02:38:10.015Z,8.45
2018-07-24T02:40:38.365Z,7.80
2018-07-24T02:43:06.809Z,7.58
2018-07-24T02:45:35.043Z,6.30
2018-07-24T02:48:03.314Z,7.03
2018-07-24T02:50:31.615Z,6.65
2018-07-24T02:52:59.853Z,5.53
2018-07-24T02:55:28.095Z,6.20
2018-07-24T02:57:56.385Z,7.72
2018-07-24T03:00:24.614Z,5.78
2018-07-24T03:02:52.865Z,6.10
2018-07-24T03:05:21.126Z,5.53
2018-07-24T03:07:49.379Z,6.12
2018-07-24T03:10:17.698Z,6.37
2018-07-24T03:12:45.824Z,6.12
2018-07-24T03:15:14.093Z,5.87
2018-07-24T03:17:42.480Z,6.10
2018-07-24T03:20:11.709Z,7.03
2018-07-24T03:22:39.933Z,7.42
2018-07-24T03:25:08.221Z,6.40
2018-07-24T03:27:36.526Z,6.47
2018-07-24T03:30:05.420Z,6.83
2018-07-24T03:32:34.033Z,6.35
2018-07-24T03:35:02.283Z,6.42
2018-07-24T03:37:30.691Z,6.95
2018-07-24T03:39:58.948Z,5.60
2018-07-24T03:42:27.240Z,6.67
2018-07-24T03:44:55.492Z,6.33
2018-07-24T03:47:23.778Z,7.53
2018-07-24T03:49:52.033Z,8.38
2018-07-24T03:52:20.382Z,7.00
2018-07-24T03:54:48.602Z,7.65
2018-07-24T03:57:16.920Z,7.80
2018-07-24T03:59:45.198Z,8.85
2018-07-24T04:02:13.516Z,8.53
2018-07-24T04:04:41.780Z,8.20
2018-07-24T04:07:10.037Z,8.68
2018-07-24T04:09:38.404Z,8.13
2018-07-24T04:12:06.658Z,8.23
2018-07-24T04:14:34.880Z,7.60
2018-07-24T04:17:03.330Z,8.35
2018-07-24T04:19:31.590Z,8.28
2018-07-24T04:21:59.867Z,7.50
2018-07-24T04:24:28.171Z,8.83
2018-07-24T04:26:56.617Z,9.58
2018-07-24T04:29:24.861Z,9.18
2018-07-24T04:31:53.180Z,10.20
2018-07-24T04:34:21.428Z,10.63
2018-07-24T04:36:49.681Z,9.78
2018-07-24T04:39:17.958Z,10.13
2018-07-24T04:41:46.244Z,8.63
2018-07-24T04:44:14.497Z,8.98
2018-07-24T04:46:42.815Z,9.10
2018-07-24T04:49:11.122Z,8.80
2018-07-24T04:51:39.353Z,8.78
2018-07-24T04:54:07.688Z,8.18
2018-07-24T04:56:35.937Z,9.55
2018-07-24T04:59:04.227Z,10.70
2018-07-24T05:01:32.554Z,11.43
2018-07-24T05:04:00.581Z,8.98
2018-07-24T05:06:28.817Z,9.73
2018-07-24T05:08:57.078Z,10.78
2018-07-24T05:11:25.373Z,12.33
2018-07-24T05:13:53.632Z,10.10
2018-07-24T05:16:21.897Z,9.90
2018-07-24T05:18:50.211Z,9.33
2018-07-24T05:21:18.461Z,8.33
2018-07-24T05:23:46.715Z,9.28
2018-07-24T05:26:14.942Z,9.63
2018-07-24T05:28:43.234Z,9.33
2018-07-24T05:31:11.858Z,10.58
2018-07-24T05:33:40.115Z,9.25
2018-07-24T05:36:08.378Z,10.08
2018-07-24T05:38:36.656Z,8.15
2018-07-24T05:41:04.901Z,8.25
2018-07-24T05:43:33.134Z,9.78
2018-07-24T05:46:01.402Z,8.78
2018-07-24T05:48:29.701Z,9.25
2018-07-24T05:50:57.941Z,8.48
2018-07-24T05:53:26.169Z,7.70
2018-07-24T05:55:54.587Z,8.18
2018-07-24T05:58:22.826Z,7.47
2018-07-24T06:00:51.064Z,6.53
2018-07-24T06:03:19.354Z,9.70
2018-07-24T06:05:47.631Z,7.75
2018-07-24T06:08:15.936Z,7.65
2018-07-24T06:10:44.175Z,8.10
2018-07-24T06:13:12.457Z,7.97
2018-07-24T06:15:40.725Z,7.28
2018-07-24T06:18:08.964Z,6.62
2018-07-24T06:20:37.222Z,7.10
2018-07-24T06:23:06.054Z,8.10
2018-07-24T06:25:34.294Z,7.08
2018-07-24T06:28:02.581Z,7.92
2018-07-24T06:30:30.891Z,7.12
2018-07-24T06:32:59.211Z,8.80
2018-07-24T06:35:27.457Z,6.83
2018-07-24T06:37:55.718Z,7.92
2018-07-24T06:40:23.728Z,6.95
2018-07-24T06:42:51.966Z,7.50
2018-07-24T06:45:20.244Z,7.08
2018-07-24T06:47:48.566Z,6.80
2018-07-24T06:50:16.800Z,6.80
2018-07-24T06:52:45.390Z,7.28
2018-07-24T06:55:13.670Z,6.20
2018-07-24T06:57:41.889Z,6.42
2018-07-24T07:00:10.411Z,9.33
2018-07-24T07:02:38.666Z,8.40
2018-07-24T07:05:07.143Z,8.13
2018-07-24T07:07:35.501Z,6.50
2018-07-24T07:10:03.714Z,7.12
2018-07-24T07:12:31.969Z,6.40
2018-07-24T07:15:00.227Z,6.67
2018-07-24T07:17:28.449Z,5.40
2018-07-24T07:19:57.076Z,8.28
2018-07-24T07:22:25.862Z,7.75
2018-07-24T07:24:54.141Z,6.03
2018-07-24T07:27:22.400Z,7.12
2018-07-24T07:29:50.681Z,5.72
2018-07-24T07:32:19.031Z,8.18
2018-07-24T07:34:47.278Z,7.25
2018-07-24T07:37:15.590Z,6.50
2018-07-24T07:39:43.856Z,7.58
2018-07-24T07:42:12.353Z,7.30
2018-07-24T07:44:40.592Z,7.10
2018-07-24T07:47:08.901Z,6.67
2018-07-24T07:49:37.169Z,7.47
2018-07-24T07:52:05.469Z,6.62
2018-07-24T07:54:33.709Z,7.22
2018-07-24T07:57:01.939Z,6.80
2018-07-24T07:59:30.195Z,6.05
2018-07-24T08:01:58.473Z,6.92
2018-07-24T08:04:26.813Z,9.60
2018-07-24T08:06:55.017Z,6.53
2018-07-24T08:09:23.347Z,7.17
2018-07-24T08:11:51.651Z,9.28
2018-07-24T08:14:19.902Z,7.90
2018-07-24T08:16:48.181Z,8.53
2018-07-24T08:19:16.446Z,5.72
2018-07-24T08:21:44.710Z,7.67
2018-07-24T08:24:13.077Z,9.00
2018-07-24T08:26:41.342Z,5.90
2018-07-24T08:29:09.593Z,6.37
2018-07-24T08:31:37.858Z,5.60
2018-07-24T08:34:06.357Z,9.55
2018-07-24T08:36:34.600Z,5.40
2018-07-24T08:39:02.620Z,5.60
2018-07-24T08:41:30.844Z,6.12
2018-07-24T08:43:59.109Z,5.08
2018-07-24T08:46:27.667Z,5.65
2018-07-24T08:48:55.937Z,5.72
2018-07-24T08:51:24.232Z,5.60
2018-07-24T08:53:52.826Z,5.28
2018-07-24T08:56:20.690Z,3.80
2018-07-24T08:58:48.947Z,7.40
2018-07-24T09:01:17.642Z,4.25
2018-07-24T09:03:45.941Z,7.10
2018-07-24T09:06:14.144Z,4.47
2018-07-24T09:08:42.420Z,5.30
2018-07-24T09:11:10.650Z,4.42
2018-07-24T09:13:39.066Z,3.62
2018-07-24T09:16:07.358Z,5.05
2018-07-24T09:18:35.601Z,3.65
2018-07-24T09:21:10.490Z,4.62
2018-07-24T09:23:38.747Z,5.35
2018-07-24T09:26:07.389Z,4.58
2018-07-24T09:28:35.666Z,4.15
2018-07-24T09:31:03.941Z,4.70
2018-07-24T09:33:32.187Z,5.08
2018-07-24T09:36:00.453Z,5.58
2018-07-24T09:38:28.716Z,4.80
2018-07-24T09:40:56.952Z,6.22
2018-07-24T09:43:25.419Z,5.47
2018-07-24T09:45:53.690Z,4.50
2018-07-24T09:48:21.949Z,7.20
2018-07-24T09:50:50.183Z,4.90
2018-07-24T09:53:18.784Z,4.67
2018-07-24T09:55:47.013Z,5.50
2018-07-24T09:58:15.316Z,4.40
2018-07-24T10:00:48.841Z,4.60
2018-07-24T10:03:17.118Z,3.62
2018-07-24T10:05:45.397Z,3.25
2018-07-24T10:08:13.726Z,4.15
2018-07-24T10:10:41.964Z,3.20
2018-07-24T10:13:10.313Z,2.98
2018-07-24T10:15:38.559Z,3.17
2018-07-24T10:18:06.815Z,4.12
2018-07-24T10:20:35.097Z,5.20
2018-07-24T10:23:03.443Z,3.80
2018-07-24T10:25:31.746Z,3.55
2018-07-24T10:28:00.144Z,4.55
2018-07-24T10:30:28.462Z,4.05
2018-07-24T10:32:56.663Z,3.37
2018-07-24T10:35:24.954Z,3.40
2018-07-24T10:37:53.214Z,3.27
2018-07-24T10:40:28.332Z,4.00
2018-07-24T10:42:56.660Z,4.20
2018-07-24T10:45:25.797Z,3.70
2018-07-24T10:47:54.287Z,4.80
2018-07-24T10:50:22.572Z,3.85
2018-07-24T10:52:51.044Z,4.05
2018-07-24T10:55:19.282Z,3.40
2018-07-24T10:57:48.073Z,3.33
2018-07-24T11:00:16.309Z,3.17
2018-07-24T11:02:44.582Z,2.72
2018-07-24T11:05:12.782Z,2.90
2018-07-24T11:07:40.998Z,3.67
2018-07-24T11:10:09.362Z,2.75
2018-07-24T11:12:37.623Z,3.50
2018-07-24T11:15:05.927Z,3.05
2018-07-24T11:17:34.221Z,3.22
2018-07-24T11:20:02.467Z,3.42
2018-07-24T11:22:30.762Z,2.85
2018-07-24T11:24:58.990Z,2.75
2018-07-24T11:27:27.340Z,2.60
2018-07-24T11:29:55.575Z,2.58
2018-07-24T11:32:23.872Z,3.20
2018-07-24T11:34:52.097Z,2.47
2018-07-24T11:37:20.351Z,2.50
2018-07-24T11:39:48.631Z,2.42
2018-07-24T11:42:16.901Z,2.77
2018-07-24T11:44:45.200Z,2.20
2018-07-24T11:47:13.449Z,2.85
2018-07-24T11:49:41.720Z,3.00
2018-07-24T11:52:10.007Z,3.37
2018-07-24T11:54:38.365Z,2.85
2018-07-24T11:57:06.384Z,3.10
2018-07-24T11:59:34.883Z,2.85
2018-07-24T12:02:03.174Z,2.25
2018-07-24T12:04:31.752Z,2.70
2018-07-24T12:07:00.002Z,2.77
2018-07-24T12:09:28.332Z,2.40
2018-07-24T12:11:56.677Z,2.62
2018-07-24T12:14:25.002Z,2.83
2018-07-24T12:16:53.606Z,2.15
2018-07-24T12:19:21.831Z,2.85
2018-07-24T12:21:50.158Z,3.00
2018-07-24T12:24:18.435Z,2.83
2018-07-24T12:26:47.402Z,2.65
2018-07-24T12:29:15.805Z,2.70
2018-07-24T12:31:44.068Z,2.58
2018-07-24T12:34:12.326Z,2.33
2018-07-24T12:36:40.570Z,2.30
2018-07-24T12:39:10.693Z,2.50
2018-07-24T12:41:39.062Z,2.80
2018-07-24T12:44:07.508Z,3.75
2018-07-24T12:46:36.092Z,2.37
2018-07-24T12:49:04.810Z,4.08
2018-07-24T12:51:33.092Z,2.75
2018-07-24T12:54:01.397Z,2.58
2018-07-24T12:56:29.706Z,3.67
2018-07-24T12:58:57.976Z,3.12
2018-07-24T13:01:26.334Z,2.95
2018-07-24T13:03:54.350Z,3.20
2018-07-24T13:06:22.640Z,3.10
2018-07-24T13:08:51.326Z,3.67
2018-07-24T13:11:19.574Z,4.28
2018-07-24T13:13:47.929Z,3.08
2018-07-24T13:16:17.909Z,4.05
2018-07-24T13:18:46.157Z,4.53
2018-07-24T13:21:14.540Z,4.85
2018-07-24T13:23:42.816Z,4.45
2018-07-24T13:26:12.102Z,3.87
2018-07-24T13:28:40.569Z,3.72
2018-07-24T13:31:08.822Z,3.90
2018-07-24T13:33:37.113Z,4.92
2018-07-24T13:36:05.363Z,3.05
2018-07-24T13:38:33.640Z,4.08
2018-07-24T13:41:01.892Z,4.75
2018-07-24T13:43:30.151Z,3.52
2018-07-24T13:45:58.551Z,3.50
2018-07-24T13:48:33.098Z,2.95
2018-07-24T13:51:01.361Z,2.90
2018-07-24T13:53:29.706Z,3.20
2018-07-24T13:55:57.978Z,3.55
2018-07-24T13:58:26.770Z,3.67
2018-07-24T14:00:55.234Z,3.45
2018-07-24T14:03:23.874Z,4.58
2018-07-24T14:05:52.517Z,4.05
2018-07-24T14:08:20.829Z,3.83
2018-07-24T14:10:49.746Z,4.28
2018-07-24T14:13:18.008Z,3.87
2018-07-24T14:15:46.303Z,4.12
2018-07-24T14:18:14.699Z,3.80
2018-07-24T14:20:42.971Z,3.80
2018-07-24T14:23:11.510Z,3.17
2018-07-24T14:25:39.760Z,2.90
2018-07-24T14:28:08.024Z,3.35
2018-07-24T14:30:36.278Z,4.10
2018-07-24T14:33:04.551Z,3.55
2018-07-24T14:35:32.839Z,3.20
2018-07-24T14:38:01.146Z,3.40
2018-07-24T14:40:29.519Z,3.00
2018-07-24T14:42:58.420Z,3.27
2018-07-24T14:45:27.030Z,3.05
2018-07-24T14:47:55.162Z,3.02
2018-07-24T14:50:23.557Z,3.20
2018-07-24T14:52:51.929Z,2.85
2018-07-24T14:55:20.180Z,3.05
2018-07-24T14:57:48.466Z,2.60
2018-07-24T15:00:16.713Z,2.47
2018-07-24T15:02:44.992Z,2.92
2018-07-24T15:05:13.250Z,2.17
2018-07-24T15:07:41.526Z,2.60
2018-07-24T15:10:09.786Z,2.37
2018-07-24T15:12:37.809Z,2.12
2018-07-24T15:15:06.081Z,2.90
2018-07-24T15:17:34.336Z,2.22
2018-07-24T15:20:02.805Z,2.75
2018-07-24T15:22:31.092Z,2.60
2018-07-24T15:24:59.350Z,3.08
2018-07-24T15:27:27.613Z,2.25
2018-07-24T15:29:55.849Z,1.80
2018-07-24T15:32:24.144Z,2.15
2018-07-24T15:34:52.518Z,2.40
2018-07-24T15:37:20.728Z,2.10
2018-07-24T15:39:48.988Z,2.72
2018-07-24T15:42:17.296Z,1.85
2018-07-24T15:44:45.553Z,2.20
2018-07-24T15:47:14.072Z,2.37
2018-07-24T15:49:42.347Z,1.85
2018-07-24T15:52:11.317Z,1.90
2018-07-24T15:54:39.542Z,2.22
2018-07-24T15:57:07.810Z,2.22
2018-07-24T15:59:36.434Z,1.92
2018-07-24T16:02:04.698Z,2.25
2018-07-24T16:04:32.993Z,2.30
2018-07-24T16:07:01.243Z,2.62
2018-07-24T16:09:29.528Z,2.22
2018-07-24T16:11:57.787Z,2.00
2018-07-24T16:14:26.075Z,2.27
2018-07-24T16:16:54.364Z,1.87
2018-07-24T16:19:22.695Z,2.30
2018-07-24T16:21:51.040Z,2.10
2018-07-24T16:24:19.293Z,2.33
2018-07-24T16:26:47.561Z,1.82
2018-07-24T16:29:15.877Z,1.87
2018-07-24T16:31:44.864Z,1.85
2018-07-24T16:34:13.174Z,1.72
2018-07-24T16:36:41.450Z,1.77
2018-07-24T16:39:11.135Z,1.45
2018-07-24T16:41:39.774Z,1.72
2018-07-24T16:44:08.102Z,2.08
2018-07-24T16:46:36.363Z,1.70
2018-07-24T16:49:04.767Z,1.70
2018-07-24T16:51:33.122Z,1.55
2018-07-24T16:54:01.404Z,1.92
2018-07-24T16:56:29.695Z,1.60
2018-07-24T16:58:58.008Z,1.50
2018-07-24T17:01:26.247Z,1.42
2018-07-24T17:03:54.529Z,1.50
2018-07-24T17:06:22.815Z,1.80
2018-07-24T17:08:51.094Z,1.75
2018-07-24T17:11:19.362Z,1.92
2018-07-24T17:13:47.959Z,1.60
2018-07-24T17:16:16.261Z,1.60
2018-07-24T17:18:44.553Z,1.60
2018-07-24T17:21:12.843Z,1.62
2018-07-24T17:23:41.177Z,1.30
2018-07-24T17:26:09.520Z,1.60
2018-07-24T17:28:37.928Z,1.40
2018-07-24T17:31:06.929Z,1.20
2018-07-24T17:33:35.200Z,1.25
2018-07-24T17:36:03.604Z,1.47
2018-07-24T17:38:31.942Z,1.52
2018-07-24T17:41:00.399Z,1.60
2018-07-24T17:43:28.698Z,1.57
2018-07-24T17:45:57.107Z,1.50
2018-07-24T17:48:25.454Z,1.60
2018-07-24T17:50:53.674Z,1.35
2018-07-24T17:53:21.940Z,1.40
2018-07-24T17:55:50.200Z,1.10
2018-07-24T17:58:18.522Z,1.40
2018-07-24T18:00:46.846Z,1.55
2018-07-24T18:03:15.124Z,1.42
2018-07-24T18:05:43.346Z,1.35
2018-07-24T18:08:11.783Z,1.52
2018-07-24T18:10:40.092Z,1.90
2018-07-24T18:13:08.367Z,1.95
2018-07-24T18:15:36.719Z,1.32
2018-07-24T18:18:04.936Z,1.22
2018-07-24T18:20:33.207Z,1.52
2018-07-24T18:23:01.509Z,1.20
2018-07-24T18:25:30.161Z,1.30
2018-07-24T18:27:58.405Z,1.37
2018-07-24T18:30:26.598Z,1.62
2018-07-24T18:32:54.891Z,2.00
2018-07-24T18:35:23.226Z,1.55
2018-07-24T18:37:51.871Z,1.80
2018-07-24T18:40:20.149Z,1.62
2018-07-24T18:42:48.480Z,1.47
2018-07-24T18:45:16.749Z,1.50
2018-07-24T18:47:45.088Z,1.82
2018-07-24T18:50:13.357Z,1.70
2018-07-24T18:52:41.616Z,1.90
2018-07-24T18:55:09.935Z,1.62
2018-07-24T18:57:38.168Z,1.70
2018-07-24T19:00:06.486Z,1.60
2018-07-24T19:02:34.767Z,1.67
2018-07-24T19:05:03.103Z,1.72
2018-07-24T19:07:31.357Z,1.80
2018-07-24T19:09:59.869Z,2.08
2018-07-24T19:12:28.183Z,2.05
2018-07-24T19:14:56.449Z,1.62
2018-07-24T19:17:24.756Z,2.80
2018-07-24T19:19:53.006Z,2.72
2018-07-24T19:22:21.265Z,1.77
2018-07-24T19:24:49.526Z,2.08
2018-07-24T19:27:17.825Z,2.02
2018-07-24T19:29:46.086Z,2.20
2018-07-24T19:32:14.550Z,2.00
2018-07-24T19:34:42.838Z,2.02
2018-07-24T19:37:12.108Z,2.33
2018-07-24T19:39:40.350Z,1.80
2018-07-24T19:42:08.621Z,1.60
2018-07-24T19:44:36.942Z,2.08
2018-07-24T19:47:05.238Z,2.20
2018-07-24T19:49:33.555Z,2.12
2018-07-24T19:52:01.797Z,2.80
2018-07-24T19:54:31.234Z,2.42
2018-07-24T19:56:59.503Z,2.22
2018-07-24T19:59:27.770Z,1.67
2018-07-24T20:01:56.014Z,2.87
2018-07-24T20:04:24.299Z,3.90
2018-07-24T20:06:52.631Z,2.92
2018-07-24T20:09:20.927Z,2.35
2018-07-24T20:11:49.162Z,2.40
2018-07-24T20:14:17.415Z,1.77
2018-07-24T20:16:45.694Z,1.90
2018-07-24T20:19:13.985Z,2.25
2018-07-24T20:21:42.237Z,2.15
2018-07-24T20:24:10.491Z,2.10
2018-07-24T20:26:38.721Z,2.17
2018-07-24T20:29:07.133Z,2.00
2018-07-24T20:31:35.377Z,2.55
2018-07-24T20:34:03.637Z,2.60
2018-07-24T20:36:31.959Z,2.40
2018-07-24T20:39:00.262Z,2.22
2018-07-24T20:41:28.721Z,1.80
2018-07-24T20:43:57.006Z,2.08
2018-07-24T20:46:25.260Z,1.98
2018-07-24T20:48:53.564Z,2.77
2018-07-24T20:51:21.990Z,2.02
2018-07-24T20:53:50.311Z,2.08
2018-07-24T20:56:18.617Z,2.60
2018-07-24T20:58:46.870Z,2.52
2018-07-24T21:01:15.131Z,3.00
2018-07-24T21:03:43.406Z,2.72
2018-07-24T21:06:11.682Z,2.05
2018-07-24T21:08:39.926Z,2.52
2018-07-24T21:11:08.175Z,2.87
2018-07-24T21:13:36.442Z,2.37
2018-07-24T21:16:04.701Z,2.10
2018-07-24T21:18:32.988Z,2.55
2018-07-24T21:21:01.365Z,2.90
2018-07-24T21:23:29.639Z,2.47
2018-07-24T21:25:57.915Z,3.45
2018-07-24T21:28:26.152Z,2.60
2018-07-24T21:30:54.417Z,2.65
2018-07-24T21:33:22.748Z,3.00
2018-07-24T21:35:51.176Z,2.80
2018-07-24T21:38:19.152Z,2.95
2018-07-24T21:40:47.396Z,3.25
2018-07-24T21:43:15.653Z,3.40
2018-07-24T21:45:43.917Z,2.75
2018-07-24T21:48:12.894Z,2.85
2018-07-24T21:50:41.176Z,2.92
2018-07-24T21:53:09.492Z,2.95
2018-07-24T21:55:37.742Z,2.75
2018-07-24T21:58:05.996Z,3.15
2018-07-24T22:00:36.323Z,2.85
2018-07-24T22:03:06.268Z,3.30
2018-07-24T22:05:34.550Z,3.15
2018-07-24T22:08:02.807Z,4.30
2018-07-24T22:10:31.049Z,5.12
2018-07-24T22:12:59.317Z,4.00
2018-07-24T22:15:27.928Z,3.90
2018-07-24T22:17:57.164Z,3.83
2018-07-24T22:20:25.524Z,3.87
2018-07-24T22:22:53.836Z,5.03
2018-07-24T22:25:22.075Z,4.17
2018-07-24T22:27:50.300Z,3.45
2018-07-24T22:30:18.556Z,4.42
2018-07-24T22:32:46.864Z,3.75
2018-07-24T22:35:15.121Z,4.35
2018-07-24T22:37:43.363Z,3.67
2018-07-24T22:40:12.112Z,4.05
2018-07-24T22:42:40.593Z,3.45
2018-07-24T22:45:09.429Z,3.98
2018-07-24T22:47:37.947Z,3.47
2018-07-24T22:50:06.626Z,3.35
2018-07-24T22:52:34.869Z,3.58
2018-07-24T22:55:03.104Z,3.77
2018-07-24T22:57:31.332Z,3.70
2018-07-24T22:59:59.601Z,3.92
2018-07-24T23:02:27.847Z,4.58
2018-07-24T23:04:56.069Z,3.50
2018-07-24T23:07:24.294Z,3.60
2018-07-24T23:09:52.542Z,3.25
2018-07-24T23:12:20.790Z,3.33
2018-07-24T23:14:49.044Z,3.70
2018-07-24T23:17:17.299Z,3.25
2018-07-24T23:19:45.537Z,3.20
2018-07-24T23:22:13.816Z,3.80
2018-07-24T23:24:42.057Z,3.67
2018-07-24T23:27:10.309Z,4.60
2018-07-24T23:29:38.864Z,4.03
2018-07-24T23:32:07.118Z,4.15
2018-07-24T23:34:35.353Z,3.50
2018-07-24T23:37:03.613Z,3.98
2018-07-24T23:39:32.693Z,4.30
2018-07-24T23:42:00.924Z,3.98
2018-07-24T23:44:29.184Z,4.80
2018-07-24T23:46:57.465Z,4.55
2018-07-24T23:49:25.666Z,4.75
2018-07-24T23:51:53.917Z,3.72
2018-07-24T23:54:22.157Z,4.55
2018-07-24T23:56:50.395Z,3.80
2018-07-24T23:59:18.639Z,4.20
